createdAt,value
2018-12-25T00:01:11.619Z,2.54
2018-12-25T00:04:01.923Z,2.59
2018-12-25T00:06:52.191Z,2.51
2018-12-25T00:09:42.577Z,2.38
2018-12-25T00:12:33.164Z,1.96
2018-12-25T00:15:23.394Z,2.06
2018-12-25T00:18:13.672Z,2.20
2018-12-25T00:21:03.972Z,2.20
2018-12-25T00:23:54.590Z,2.07
2018-12-25T00:26:45.385Z,2.08
2018-12-25T00:29:35.671Z,2.18
2018-12-25T00:32:26.221Z,2.20
2018-12-25T00:35:16.789Z,2.45
2018-12-25T00:38:07.016Z,2.11
2018-12-25T00:46:25.482Z,1.62
2018-12-25T00:49:14.718Z,1.42
2018-12-25T00:52:00.390Z,1.36
2018-12-25T00:54:50.640Z,1.27
2018-12-25T00:57:41.178Z,1.58
2018-12-25T01:00:31.555Z,1.21
2018-12-25T01:03:21.771Z,1.08
2018-12-25T01:06:12.396Z,1.05
2018-12-25T01:09:02.819Z,1.02
2018-12-25T01:11:53.464Z,1.40
2018-12-25T01:14:43.753Z,1.60
2018-12-25T01:17:34.038Z,1.73
2018-12-25T01:20:24.535Z,1.65
2018-12-25T01:23:15.345Z,1.74
2018-12-25T01:26:05.661Z,1.59
2018-12-25T01:28:56.205Z,1.59
2018-12-25T01:31:46.492Z,1.19
2018-12-25T01:34:37.036Z,0.79
2018-12-25T01:37:27.403Z,0.52
2018-12-25T01:40:17.645Z,0.31
2018-12-25T01:43:07.930Z,0.24
2018-12-25T01:46:00.673Z,0.27
2018-12-25T01:48:50.882Z,0.32
2018-12-25T01:51:33.553Z,0.23
2018-12-25T01:54:23.807Z,0.04
2018-12-25T01:57:06.867Z,-0.26
2018-12-25T01:59:57.363Z,-0.24
2018-12-25T02:02:40.287Z,-0.28
2018-12-25T02:05:30.569Z,-0.16
2018-12-25T02:08:13.232Z,-0.12
2018-12-25T02:11:03.482Z,0.16
2018-12-25T02:13:46.491Z,0.12
2018-12-25T02:16:36.763Z,-0.22
2018-12-25T02:19:19.934Z,-0.35
2018-12-25T02:22:10.235Z,-0.37
2018-12-25T02:25:00.469Z,-0.47
2018-12-25T02:27:43.593Z,-0.36
2018-12-25T02:30:33.909Z,-0.36
2018-12-25T02:33:24.190Z,-0.25
2018-12-25T02:36:14.425Z,-0.19
2018-12-25T02:39:17.360Z,-0.37
2018-12-25T02:42:00.388Z,-0.31
2018-12-25T02:44:50.762Z,-0.28
2018-12-25T02:47:41.127Z,-0.21
2018-12-25T02:50:31.720Z,0.03
2018-12-25T02:56:13.094Z,0.33
2018-12-25T02:59:03.297Z,0.68
2018-12-25T03:01:47.480Z,0.76
2018-12-25T03:04:37.726Z,0.65
2018-12-25T03:07:20.108Z,0.87
2018-12-25T03:10:10.319Z,0.90
2018-12-25T03:12:52.668Z,0.87
2018-12-25T03:15:42.862Z,0.83
2018-12-25T03:18:29.592Z,0.93
2018-12-25T03:21:19.866Z,0.90
2018-12-25T03:24:10.045Z,0.87
2018-12-25T03:26:53.220Z,0.89
2018-12-25T03:29:43.808Z,0.85
2018-12-25T03:32:15.345Z,0.81
2018-12-25T03:35:05.664Z,0.83
2018-12-25T03:37:55.950Z,0.89
2018-12-25T03:40:46.118Z,0.91
2018-12-25T03:43:36.316Z,0.75
2018-12-25T03:46:27.320Z,0.30
2018-12-25T03:49:10.504Z,0.24
2018-12-25T03:52:01.055Z,-0.12
2018-12-25T03:54:44.158Z,-0.61
2018-12-25T03:57:34.367Z,-0.75
2018-12-25T04:00:17.165Z,-0.83
2018-12-25T04:03:07.397Z,-0.88
2018-12-25T04:05:50.878Z,-0.89
2018-12-25T04:08:41.108Z,-0.89
2018-12-25T04:11:24.197Z,-0.96
2018-12-25T04:14:14.374Z,-0.81
2018-12-25T04:16:57.267Z,-0.61
2018-12-25T04:19:48.289Z,-0.56
2018-12-25T04:22:31.229Z,-0.50
2018-12-25T04:25:21.419Z,-0.33
2018-12-25T04:28:04.121Z,-0.28
2018-12-25T04:33:49.773Z,-0.51
2018-12-25T04:36:40.237Z,-0.63
2018-12-25T04:39:31.273Z,-0.45
2018-12-25T04:42:21.487Z,-0.62
2018-12-25T04:45:04.798Z,-0.31
2018-12-25T04:47:54.970Z,0.06
2018-12-25T04:50:38.119Z,0.34
2018-12-25T04:53:28.342Z,0.70
2018-12-25T04:56:18.578Z,0.42
2018-12-25T04:59:00.875Z,0.32
2018-12-25T05:01:51.115Z,0.62
2018-12-25T05:07:29.198Z,0.82
2018-12-25T05:10:19.369Z,0.79
2018-12-25T05:13:02.696Z,0.87
2018-12-25T05:15:52.855Z,1.00
2018-12-25T05:18:36.043Z,0.79
2018-12-25T05:21:26.247Z,1.13
2018-12-25T05:24:09.207Z,1.28
2018-12-25T05:26:59.685Z,1.37
2018-12-25T05:29:43.444Z,1.46
2018-12-25T05:32:33.633Z,1.52
2018-12-25T05:35:16.356Z,1.55
2018-12-25T05:38:06.558Z,1.55
2018-12-25T05:40:49.031Z,1.59
2018-12-25T05:43:39.238Z,1.73
2018-12-25T05:46:21.943Z,1.80
2018-12-25T05:49:12.111Z,1.57
2018-12-25T05:51:54.977Z,1.67
2018-12-25T05:54:45.530Z,1.62
2018-12-25T05:57:31.938Z,1.40
2018-12-25T06:00:22.567Z,1.05
2018-12-25T06:03:05.566Z,0.97
2018-12-25T06:05:55.763Z,0.79
2018-12-25T06:08:39.010Z,0.67
2018-12-25T06:11:29.214Z,0.43
2018-12-25T06:14:11.657Z,0.62
2018-12-25T06:17:02.170Z,0.44
2018-12-25T06:19:45.036Z,0.45
2018-12-25T06:22:35.582Z,0.47
2018-12-25T06:25:18.134Z,0.57
2018-12-25T06:28:08.629Z,0.50
2018-12-25T06:30:55.219Z,0.59
2018-12-25T06:33:45.386Z,0.46
2018-12-25T06:36:27.864Z,0.59
2018-12-25T06:39:18.052Z,0.55
2018-12-25T06:42:07.223Z,0.54
2018-12-25T06:44:57.702Z,0.46
2018-12-25T06:47:43.188Z,0.48
2018-12-25T06:50:33.747Z,0.50
2018-12-25T06:53:16.842Z,0.44
2018-12-25T06:56:07.032Z,0.48
2018-12-25T06:58:50.047Z,0.49
2018-12-25T07:01:40.230Z,0.38
2018-12-25T07:04:23.263Z,0.42
2018-12-25T07:07:13.445Z,0.37
2018-12-25T07:09:56.145Z,0.33
2018-12-25T07:12:46.342Z,0.30
2018-12-25T07:21:33.861Z,0.68
2018-12-25T07:24:16.429Z,0.83
2018-12-25T07:27:07.047Z,0.63
2018-12-25T07:29:57.299Z,0.74
2018-12-25T07:32:47.521Z,0.83
2018-12-25T07:35:37.869Z,0.80
2018-12-25T07:38:28.145Z,1.03
2018-12-25T07:41:18.601Z,1.18
2018-12-25T07:44:28.075Z,1.21
2018-12-25T07:47:18.366Z,1.34
2018-12-25T07:50:09.149Z,1.45
2018-12-25T07:52:59.840Z,1.73
2018-12-25T07:55:50.019Z,1.86
2018-12-25T07:58:40.311Z,1.99
2018-12-25T08:01:30.551Z,2.13
2018-12-25T08:04:14.063Z,2.08
2018-12-25T08:08:15.740Z,2.34
2018-12-25T08:11:05.497Z,2.26
2018-12-25T08:13:55.415Z,2.34
2018-12-25T08:16:45.249Z,2.39
2018-12-25T08:19:35.372Z,2.52
2018-12-25T08:22:19.652Z,2.56
2018-12-25T08:27:51.739Z,2.63
2018-12-25T08:30:41.513Z,2.80
2018-12-25T08:33:24.274Z,2.56
2018-12-25T08:36:14.398Z,2.65
2018-12-25T08:38:57.146Z,2.54
2018-12-25T08:41:46.880Z,2.68
2018-12-25T08:44:36.698Z,2.74
2018-12-25T08:47:19.296Z,2.62
2018-12-25T08:50:10.558Z,2.68
2018-12-25T08:52:53.464Z,2.79
2018-12-25T08:55:43.555Z,2.73
2018-12-25T08:58:26.414Z,2.82
2018-12-25T09:01:16.199Z,2.93
2018-12-25T09:03:58.593Z,2.94
2018-12-25T09:06:48.338Z,3.05
2018-12-25T09:09:31.100Z,3.13
2018-12-25T09:12:20.828Z,3.21
2018-12-25T09:15:10.615Z,3.27
2018-12-25T09:17:52.726Z,3.41
2018-12-25T09:20:42.482Z,3.41
2018-12-25T09:23:32.188Z,3.30
2018-12-25T09:26:22.760Z,3.33
2018-12-25T09:31:57.220Z,3.21
2018-12-25T09:34:48.036Z,3.49
2018-12-25T09:37:31.312Z,3.53
2018-12-25T09:40:02.069Z,3.50
2018-12-25T09:42:51.819Z,3.59
2018-12-25T09:45:35.156Z,3.63
2018-12-25T09:48:18.040Z,3.45
2018-12-25T09:51:07.936Z,2.85
2018-12-25T09:53:57.741Z,2.86
2018-12-25T09:56:47.717Z,2.57
2018-12-25T09:59:37.560Z,2.57
2018-12-25T10:02:27.328Z,2.36
2018-12-25T10:05:09.760Z,2.66
2018-12-25T10:07:59.584Z,2.52
2018-12-25T10:10:49.382Z,2.68
2018-12-25T10:13:39.203Z,2.63
2018-12-25T10:16:29.478Z,2.73
2018-12-25T10:19:19.291Z,2.58
2018-12-25T10:22:09.201Z,2.69
2018-12-25T10:24:59.334Z,2.73
2018-12-25T10:27:49.492Z,2.46
2018-12-25T10:30:40.223Z,2.70
2018-12-25T10:33:30.018Z,2.83
2018-12-25T10:36:19.870Z,3.17
2018-12-25T10:39:09.682Z,3.32
2018-12-25T10:41:59.532Z,3.36
2018-12-25T10:44:49.374Z,3.55
2018-12-25T10:47:39.149Z,3.64
2018-12-25T10:50:28.878Z,3.65
2018-12-25T10:53:10.911Z,3.77
2018-12-25T10:56:00.660Z,3.74
2018-12-25T10:58:43.513Z,3.96
2018-12-25T11:01:36.091Z,3.71
2018-12-25T11:04:25.921Z,3.74
2018-12-25T11:07:15.730Z,3.58
2018-12-25T11:10:06.360Z,3.97
2018-12-25T11:12:56.181Z,4.05
2018-12-25T11:15:46.001Z,3.94
2018-12-25T11:18:35.814Z,4.03
2018-12-25T11:21:25.599Z,4.05
2018-12-25T11:24:15.387Z,4.10
2018-12-25T11:27:05.129Z,4.02
2018-12-25T11:29:47.281Z,4.04
2018-12-25T11:32:37.192Z,3.82
2018-12-25T11:35:26.958Z,3.98
2018-12-25T11:38:35.549Z,4.21
2018-12-25T11:44:05.981Z,4.23
2018-12-25T11:46:55.748Z,4.04
2018-12-25T11:49:38.615Z,4.04
2018-12-25T11:52:28.750Z,4.28
2018-12-25T11:55:12.987Z,4.44
2018-12-25T11:58:02.749Z,4.24
2018-12-25T12:00:45.395Z,4.22
2018-12-25T12:03:35.725Z,4.06
2018-12-25T12:06:18.919Z,3.83
2018-12-25T12:09:09.494Z,3.68
2018-12-25T12:11:53.508Z,3.49
2018-12-25T12:15:02.321Z,3.66
2018-12-25T12:17:45.205Z,3.45
2018-12-25T12:20:35.223Z,3.61
2018-12-25T12:23:18.229Z,3.74
2018-12-25T12:26:08.293Z,3.80
2018-12-25T12:28:51.359Z,4.17
2018-12-25T12:31:22.121Z,3.73
2018-12-25T12:34:12.159Z,3.55
2018-12-25T12:36:54.479Z,3.58
2018-12-25T12:39:44.961Z,3.53
2018-12-25T12:42:35.057Z,3.25
2018-12-25T12:45:17.422Z,2.85
2018-12-25T12:48:07.313Z,2.73
2018-12-25T12:50:57.248Z,2.60
2018-12-25T12:53:43.676Z,2.69
2018-12-25T12:56:26.217Z,2.53
2018-12-25T13:01:58.651Z,3.14
2018-12-25T13:04:48.772Z,3.15
2018-12-25T13:07:31.028Z,3.48
2018-12-25T13:10:20.892Z,3.78
2018-12-25T13:13:03.280Z,4.05
2018-12-25T13:15:53.352Z,4.26
2018-12-25T13:18:36.200Z,4.45
2018-12-25T13:21:26.824Z,4.56
2018-12-25T13:24:09.450Z,4.69
2018-12-25T13:26:59.615Z,4.85
2018-12-25T13:29:50.383Z,4.56
2018-12-25T13:32:33.722Z,4.46
2018-12-25T13:35:23.839Z,4.47
2018-12-25T13:38:14.047Z,4.57
2018-12-25T13:41:04.151Z,4.52
2018-12-25T13:43:54.295Z,4.21
2018-12-25T13:46:51.540Z,3.84
2018-12-25T13:49:32.850Z,4.01
2018-12-25T13:55:19.488Z,4.27
2018-12-25T13:58:09.316Z,3.89
2018-12-25T14:00:56.333Z,3.63
2018-12-25T14:03:46.208Z,3.55
2018-12-25T14:06:17.003Z,3.41
2018-12-25T14:09:08.423Z,3.25
2018-12-25T14:11:52.680Z,3.07
2018-12-25T14:14:42.808Z,2.88
2018-12-25T14:17:25.642Z,2.82
2018-12-25T14:20:15.756Z,2.71
2018-12-25T14:22:58.330Z,2.60
2018-12-25T14:25:48.472Z,2.77
2018-12-25T14:28:32.578Z,2.84
2018-12-25T14:31:22.640Z,2.77
2018-12-25T14:37:03.665Z,2.86
2018-12-25T14:39:47.569Z,2.91
2018-12-25T14:42:32.261Z,2.82
2018-12-25T14:45:15.068Z,2.44
2018-12-25T14:48:05.286Z,2.41
2018-12-25T14:50:55.509Z,2.24
2018-12-25T14:53:47.703Z,2.30
2018-12-25T14:56:37.879Z,2.20
2018-12-25T14:59:28.062Z,2.19
2018-12-25T15:02:18.344Z,2.14
2018-12-25T15:05:08.536Z,1.93
2018-12-25T15:07:58.711Z,2.03
2018-12-25T15:10:48.887Z,1.91
2018-12-25T15:13:39.366Z,1.97
2018-12-25T15:16:29.270Z,1.91
2018-12-25T15:19:19.886Z,1.98
2018-12-25T15:28:08.850Z,2.00
2018-12-25T15:30:58.414Z,2.01
2018-12-25T15:33:40.845Z,1.81
2018-12-25T15:36:30.645Z,1.95
2018-12-25T15:39:17.697Z,1.91
2018-12-25T15:42:07.539Z,1.90
2018-12-25T15:44:50.519Z,1.91
2018-12-25T15:47:40.660Z,1.81
2018-12-25T15:50:23.121Z,1.92
2018-12-25T15:53:13.213Z,1.93
2018-12-25T15:55:59.791Z,1.87
2018-12-25T15:58:49.856Z,1.83
2018-12-25T16:04:36.428Z,1.84
2018-12-25T16:07:07.263Z,1.88
2018-12-25T16:09:57.434Z,1.74
2018-12-25T16:12:40.035Z,1.95
2018-12-25T16:15:30.285Z,1.90
2018-12-25T16:18:20.241Z,1.77
2018-12-25T16:21:08.630Z,1.81
2018-12-25T16:23:51.101Z,1.69
2018-12-25T16:26:41.161Z,1.81
2018-12-25T16:29:24.052Z,1.72
2018-12-25T16:32:14.182Z,1.60
2018-12-25T16:34:56.529Z,1.73
2018-12-25T16:37:47.755Z,1.69
2018-12-25T16:40:30.932Z,1.69
2018-12-25T16:43:01.716Z,1.57
2018-12-25T16:46:10.789Z,1.65
2018-12-25T16:48:53.736Z,1.54
2018-12-25T16:51:43.304Z,1.43
2018-12-25T16:54:33.420Z,1.57
2018-12-25T17:00:16.914Z,1.50
2018-12-25T17:03:08.330Z,1.44
2018-12-25T17:06:17.352Z,1.35
2018-12-25T17:09:08.098Z,1.40
2018-12-25T17:11:57.938Z,1.33
2018-12-25T17:14:47.692Z,1.42
2018-12-25T17:17:56.552Z,1.64
2018-12-25T17:20:38.578Z,1.74
2018-12-25T17:23:28.318Z,1.98
2018-12-25T17:26:10.820Z,1.98
2018-12-25T17:28:52.992Z,1.77
2018-12-25T17:31:35.626Z,1.90
2018-12-25T17:34:25.385Z,1.98
2018-12-25T17:37:15.257Z,1.94
2018-12-25T17:39:57.660Z,1.76
2018-12-25T17:42:47.532Z,1.72
2018-12-25T17:45:37.340Z,1.45
2018-12-25T17:48:27.194Z,1.38
2018-12-25T17:51:16.963Z,1.56
2018-12-25T17:54:10.677Z,1.70
2018-12-25T17:56:50.468Z,1.74
2018-12-25T17:59:40.225Z,1.63
2018-12-25T18:02:29.968Z,1.75
2018-12-25T18:05:00.929Z,1.73
2018-12-25T18:07:50.667Z,1.86
2018-12-25T18:16:30.145Z,1.89
2018-12-25T18:19:14.467Z,1.76
2018-12-25T18:22:04.244Z,1.60
2018-12-25T18:24:46.469Z,1.54
2018-12-25T18:27:36.213Z,1.54
2018-12-25T18:30:18.897Z,1.48
2018-12-25T18:33:08.679Z,1.37
2018-12-25T18:35:51.125Z,1.40
2018-12-25T18:38:40.877Z,1.34
2018-12-25T18:41:23.419Z,1.67
2018-12-25T18:44:13.167Z,1.64
2018-12-25T18:46:55.386Z,1.72
2018-12-25T18:49:45.135Z,1.56
2018-12-25T18:52:28.113Z,1.49
2018-12-25T18:55:17.853Z,1.28
2018-12-25T18:58:00.702Z,1.44
2018-12-25T19:00:50.774Z,1.38
2018-12-25T19:03:33.521Z,1.39
2018-12-25T19:06:23.279Z,1.44
2018-12-25T19:09:06.509Z,1.37
2018-12-25T19:11:56.257Z,1.29
2018-12-25T19:14:43.365Z,1.30
2018-12-25T19:17:33.069Z,1.26
2018-12-25T19:20:15.241Z,1.14
2018-12-25T19:23:05.012Z,1.02
2018-12-25T19:25:47.164Z,1.30
2018-12-25T19:28:36.949Z,1.30
2018-12-25T19:31:19.857Z,1.17
2018-12-25T19:34:09.641Z,1.27
2018-12-25T19:36:52.557Z,1.24
2018-12-25T19:39:42.343Z,1.30
2018-12-25T19:42:24.446Z,1.29
2018-12-25T19:45:14.221Z,1.21
2018-12-25T19:47:56.288Z,1.27
2018-12-25T19:50:46.016Z,1.18
2018-12-25T19:53:28.459Z,1.11
2018-12-25T19:56:18.252Z,1.42
2018-12-25T19:59:01.213Z,1.40
2018-12-25T20:01:50.947Z,1.29
2018-12-25T20:05:18.815Z,1.41
2018-12-25T20:08:46.657Z,1.40
2018-12-25T20:11:48.230Z,1.32
2018-12-25T20:15:16.089Z,1.35
2018-12-25T20:18:18.019Z,1.19
2018-12-25T20:21:45.892Z,1.20
2018-12-25T20:27:50.024Z,1.18
2018-12-25T20:31:17.882Z,1.36
2018-12-25T20:34:18.903Z,1.26
2018-12-25T20:37:46.770Z,1.35
2018-12-25T20:40:48.361Z,1.53
2018-12-25T20:44:16.292Z,1.62
2018-12-25T20:47:06.616Z,1.48
2018-12-25T20:50:34.542Z,1.38
2018-12-25T20:53:23.343Z,1.32
2018-12-25T20:56:24.589Z,1.21
2018-12-25T20:59:52.542Z,1.33
2018-12-25T21:02:56.843Z,1.36
2018-12-25T21:06:24.684Z,1.62
2018-12-25T21:09:26.343Z,1.58
2018-12-25T21:12:54.422Z,1.47
2018-12-25T21:15:56.653Z,1.53
2018-12-25T21:19:24.625Z,1.41
2018-12-25T21:22:52.616Z,1.22
2018-12-25T21:26:20.566Z,1.27
2018-12-25T21:29:02.949Z,1.40
2018-12-25T21:31:52.857Z,1.16
2018-12-25T21:34:42.649Z,1.02
2018-12-25T21:37:32.471Z,1.04
2018-12-25T21:43:36.273Z,1.25
2018-12-25T21:46:26.298Z,1.33
2018-12-25T21:49:16.295Z,1.20
2018-12-25T21:52:06.283Z,1.36
2018-12-25T21:54:56.335Z,1.57
2018-12-25T21:57:46.054Z,1.51
2018-12-25T22:00:36.222Z,1.72
2018-12-25T22:03:45.034Z,1.62
2018-12-25T22:06:27.945Z,1.89
2018-12-25T22:09:17.737Z,2.05
2018-12-25T22:12:00.361Z,2.17
2018-12-25T22:14:50.150Z,1.99
2018-12-25T22:17:32.595Z,1.60
2018-12-25T22:20:47.427Z,1.39
2018-12-25T22:23:29.876Z,1.46
2018-12-25T22:26:19.660Z,1.56
2018-12-25T22:29:02.017Z,1.02
2018-12-25T22:31:51.801Z,1.22
2018-12-25T22:37:36.547Z,1.67
2018-12-25T22:40:07.635Z,1.94
2018-12-25T22:42:57.397Z,1.98
2018-12-25T22:45:39.680Z,2.04
2018-12-25T22:48:29.502Z,1.99
2018-12-25T22:51:13.365Z,2.12
2018-12-25T22:54:03.233Z,2.26
2018-12-25T22:56:53.085Z,2.10
2018-12-25T23:00:01.995Z,1.68
2018-12-25T23:02:51.811Z,1.51
2018-12-25T23:05:41.640Z,1.53
2018-12-25T23:08:31.459Z,1.68
2018-12-25T23:11:21.238Z,1.35
2018-12-25T23:14:10.980Z,1.21
2018-12-25T23:17:00.760Z,1.29
2018-12-25T23:19:44.345Z,1.09
2018-12-25T23:22:34.096Z,0.98
2018-12-25T23:25:17.007Z,1.14
2018-12-25T23:28:08.672Z,1.38
2018-12-25T23:30:51.957Z,1.43
2018-12-25T23:33:41.742Z,1.55
2018-12-25T23:36:23.925Z,1.67
2018-12-25T23:39:13.704Z,1.42
2018-12-25T23:41:55.697Z,1.15
2018-12-25T23:44:45.502Z,1.18
2018-12-25T23:53:53.583Z,0.81
2018-12-25T23:56:43.722Z,0.72
2018-12-25T23:59:30.813Z,0.79
